sensor_id;sensor_type;location;lat;lon;timestamp;P1;durP1;ratioP1;P2;durP2;ratioP2
72132;SDS011;60008;50.826;6.896;2023-06-10T00:01:16;10.48;;;6.32;;
72132;SDS011;60008;50.826;6.896;2023-06-10T00:04:00;9.70;;;6.60;;
72132;SDS011;60008;50.826;6.896;2023-06-10T00:06:59;9.30;;;6.68;;
72132;SDS011;60008;50.826;6.896;2023-06-10T00:09:44;8.47;;;5.83;;
72132;SDS011;60008;50.826;6.896;2023-06-10T00:12:36;8.80;;;6.57;;
72132;SDS011;60008;50.826;6.896;2023-06-10T00:15:22;9.50;;;6.50;;
72132;SDS011;60008;50.826;6.896;2023-06-10T00:18:14;10.63;;;6.50;;
72132;SDS011;60008;50.826;6.896;2023-06-10T00:21:00;10.93;;;6.68;;
72132;SDS011;60008;50.826;6.896;2023-06-10T00:23:55;10.07;;;6.30;;
72132;SDS011;60008;50.826;6.896;2023-06-10T00:26:40;11.07;;;6.35;;
72132;SDS011;60008;50.826;6.896;2023-06-10T00:29:32;9.63;;;6.70;;
72132;SDS011;60008;50.826;6.896;2023-06-10T00:32:17;10.25;;;6.82;;
72132;SDS011;60008;50.826;6.896;2023-06-10T00:35:08;11.82;;;6.38;;
72132;SDS011;60008;50.826;6.896;2023-06-10T00:37:54;9.37;;;6.50;;
72132;SDS011;60008;50.826;6.896;2023-06-10T00:40:45;10.07;;;6.22;;
72132;SDS011;60008;50.826;6.896;2023-06-10T00:43:30;9.25;;;6.50;;
72132;SDS011;60008;50.826;6.896;2023-06-10T00:46:22;9.35;;;6.32;;
72132;SDS011;60008;50.826;6.896;2023-06-10T00:49:12;8.48;;;6.45;;
72132;SDS011;60008;50.826;6.896;2023-06-10T00:52:04;10.33;;;6.20;;
72132;SDS011;60008;50.826;6.896;2023-06-10T00:54:51;11.70;;;6.60;;
72132;SDS011;60008;50.826;6.896;2023-06-10T00:57:44;11.43;;;6.85;;
72132;SDS011;60008;50.826;6.896;2023-06-10T01:00:30;9.38;;;6.38;;
72132;SDS011;60008;50.826;6.896;2023-06-10T01:03:22;11.38;;;6.90;;
72132;SDS011;60008;50.826;6.896;2023-06-10T01:09:13;11.43;;;6.57;;
72132;SDS011;60008;50.826;6.896;2023-06-10T01:12:41;9.13;;;6.30;;
72132;SDS011;60008;50.826;6.896;2023-06-10T01:15:34;10.85;;;7.03;;
72132;SDS011;60008;50.826;6.896;2023-06-10T01:18:30;9.43;;;6.32;;
72132;SDS011;60008;50.826;6.896;2023-06-10T01:21:22;12.30;;;6.53;;
72132;SDS011;60008;50.826;6.896;2023-06-10T01:24:19;9.05;;;6.43;;
72132;SDS011;60008;50.826;6.896;2023-06-10T01:27:05;11.73;;;6.55;;
72132;SDS011;60008;50.826;6.896;2023-06-10T01:30:04;9.82;;;7.05;;
72132;SDS011;60008;50.826;6.896;2023-06-10T01:32:56;9.70;;;6.93;;
72132;SDS011;60008;50.826;6.896;2023-06-10T01:35:50;9.03;;;6.50;;
72132;SDS011;60008;50.826;6.896;2023-06-10T01:38:43;12.40;;;7.13;;
72132;SDS011;60008;50.826;6.896;2023-06-10T01:41:29;11.90;;;7.07;;
72132;SDS011;60008;50.826;6.896;2023-06-10T01:44:22;11.40;;;6.82;;
72132;SDS011;60008;50.826;6.896;2023-06-10T01:47:08;11.52;;;7.05;;
72132;SDS011;60008;50.826;6.896;2023-06-10T01:50:00;10.00;;;7.10;;
72132;SDS011;60008;50.826;6.896;2023-06-10T01:52:45;9.60;;;7.03;;
72132;SDS011;60008;50.826;6.896;2023-06-10T01:55:38;9.15;;;6.70;;
72132;SDS011;60008;50.826;6.896;2023-06-10T01:58:23;9.65;;;7.22;;
72132;SDS011;60008;50.826;6.896;2023-06-10T02:01:14;9.30;;;6.38;;
72132;SDS011;60008;50.826;6.896;2023-06-10T02:03:59;11.77;;;6.93;;
72132;SDS011;60008;50.826;6.896;2023-06-10T02:06:57;15.88;;;7.03;;
72132;SDS011;60008;50.826;6.896;2023-06-10T02:09:50;9.80;;;6.72;;
72132;SDS011;60008;50.826;6.896;2023-06-10T02:12:42;11.98;;;6.90;;
72132;SDS011;60008;50.826;6.896;2023-06-10T02:15:27;9.15;;;6.47;;
72132;SDS011;60008;50.826;6.896;2023-06-10T02:18:18;10.57;;;6.30;;
72132;SDS011;60008;50.826;6.896;2023-06-10T02:21:05;8.80;;;6.30;;
72132;SDS011;60008;50.826;6.896;2023-06-10T02:23:58;10.82;;;6.70;;
72132;SDS011;60008;50.826;6.896;2023-06-10T02:26:49;9.25;;;6.75;;
72132;SDS011;60008;50.826;6.896;2023-06-10T02:29:42;9.50;;;6.55;;
72132;SDS011;60008;50.826;6.896;2023-06-10T02:32:27;10.30;;;6.77;;
72132;SDS011;60008;50.826;6.896;2023-06-10T02:35:19;10.32;;;6.43;;
72132;SDS011;60008;50.826;6.896;2023-06-10T02:38:11;11.38;;;6.68;;
72132;SDS011;60008;50.826;6.896;2023-06-10T02:40:56;13.05;;;7.10;;
72132;SDS011;60008;50.826;6.896;2023-06-10T02:43:48;11.85;;;7.03;;
72132;SDS011;60008;50.826;6.896;2023-06-10T02:46:40;10.30;;;7.03;;
72132;SDS011;60008;50.826;6.896;2023-06-10T02:49:25;8.40;;;5.93;;
72132;SDS011;60008;50.826;6.896;2023-06-10T02:52:19;10.52;;;7.00;;
72132;SDS011;60008;50.826;6.896;2023-06-10T02:55:05;9.88;;;6.55;;
72132;SDS011;60008;50.826;6.896;2023-06-10T02:57:57;11.43;;;6.97;;
72132;SDS011;60008;50.826;6.896;2023-06-10T03:00:42;10.03;;;6.90;;
72132;SDS011;60008;50.826;6.896;2023-06-10T03:03:34;10.73;;;6.55;;
72132;SDS011;60008;50.826;6.896;2023-06-10T03:06:26;10.02;;;6.95;;
72132;SDS011;60008;50.826;6.896;2023-06-10T03:09:18;10.82;;;6.60;;
72132;SDS011;60008;50.826;6.896;2023-06-10T03:12:10;17.70;;;7.40;;
72132;SDS011;60008;50.826;6.896;2023-06-10T03:15:02;11.67;;;7.17;;
72132;SDS011;60008;50.826;6.896;2023-06-10T03:17:56;10.10;;;6.75;;
72132;SDS011;60008;50.826;6.896;2023-06-10T03:20:41;11.15;;;7.30;;
72132;SDS011;60008;50.826;6.896;2023-06-10T03:23:32;9.65;;;6.70;;
72132;SDS011;60008;50.826;6.896;2023-06-10T03:26:18;9.65;;;6.60;;
72132;SDS011;60008;50.826;6.896;2023-06-10T03:29:12;11.23;;;6.43;;
72132;SDS011;60008;50.826;6.896;2023-06-10T03:31:57;9.38;;;6.43;;
72132;SDS011;60008;50.826;6.896;2023-06-10T03:34:48;10.55;;;6.82;;
72132;SDS011;60008;50.826;6.896;2023-06-10T03:37:33;10.20;;;6.53;;
72132;SDS011;60008;50.826;6.896;2023-06-10T03:40:25;12.38;;;6.50;;
72132;SDS011;60008;50.826;6.896;2023-06-10T03:43:16;12.27;;;6.43;;
72132;SDS011;60008;50.826;6.896;2023-06-10T03:46:01;10.02;;;6.38;;
72132;SDS011;60008;50.826;6.896;2023-06-10T03:48:52;9.82;;;6.50;;
72132;SDS011;60008;50.826;6.896;2023-06-10T03:51:44;10.85;;;6.78;;
72132;SDS011;60008;50.826;6.896;2023-06-10T03:54:36;10.73;;;6.60;;
72132;SDS011;60008;50.826;6.896;2023-06-10T03:57:28;10.70;;;6.70;;
72132;SDS011;60008;50.826;6.896;2023-06-10T04:00:13;9.73;;;6.60;;
72132;SDS011;60008;50.826;6.896;2023-06-10T04:03:07;10.00;;;6.75;;
72132;SDS011;60008;50.826;6.896;2023-06-10T04:05:54;12.80;;;6.65;;
72132;SDS011;60008;50.826;6.896;2023-06-10T04:08:51;10.45;;;6.97;;
72132;SDS011;60008;50.826;6.896;2023-06-10T04:11:43;11.83;;;6.93;;
72132;SDS011;60008;50.826;6.896;2023-06-10T04:14:28;9.85;;;6.75;;
72132;SDS011;60008;50.826;6.896;2023-06-10T04:17:20;10.07;;;7.15;;
72132;SDS011;60008;50.826;6.896;2023-06-10T04:20:06;11.27;;;7.00;;
72132;SDS011;60008;50.826;6.896;2023-06-10T04:22:59;10.48;;;6.97;;
72132;SDS011;60008;50.826;6.896;2023-06-10T04:25:51;11.67;;;6.77;;
72132;SDS011;60008;50.826;6.896;2023-06-10T04:28:36;12.60;;;7.50;;
72132;SDS011;60008;50.826;6.896;2023-06-10T04:31:27;10.90;;;6.55;;
72132;SDS011;60008;50.826;6.896;2023-06-10T04:34:12;13.35;;;6.78;;
72132;SDS011;60008;50.826;6.896;2023-06-10T04:37:04;11.68;;;6.85;;
72132;SDS011;60008;50.826;6.896;2023-06-10T04:39:49;10.83;;;7.00;;
72132;SDS011;60008;50.826;6.896;2023-06-10T04:42:41;11.15;;;7.10;;
72132;SDS011;60008;50.826;6.896;2023-06-10T04:45:26;9.80;;;6.70;;
72132;SDS011;60008;50.826;6.896;2023-06-10T04:48:18;9.52;;;7.13;;
72132;SDS011;60008;50.826;6.896;2023-06-10T04:51:10;10.13;;;6.57;;
72132;SDS011;60008;50.826;6.896;2023-06-10T04:54:15;11.50;;;6.90;;
72132;SDS011;60008;50.826;6.896;2023-06-10T04:57:00;12.02;;;6.45;;
72132;SDS011;60008;50.826;6.896;2023-06-10T04:59:52;12.35;;;7.00;;
72132;SDS011;60008;50.826;6.896;2023-06-10T05:02:44;9.48;;;6.60;;
72132;SDS011;60008;50.826;6.896;2023-06-10T05:05:36;11.93;;;6.95;;
72132;SDS011;60008;50.826;6.896;2023-06-10T05:08:28;10.90;;;6.50;;
72132;SDS011;60008;50.826;6.896;2023-06-10T05:11:20;13.73;;;6.50;;
72132;SDS011;60008;50.826;6.896;2023-06-10T05:14:05;12.60;;;6.70;;
72132;SDS011;60008;50.826;6.896;2023-06-10T05:16:56;11.32;;;6.43;;
72132;SDS011;60008;50.826;6.896;2023-06-10T05:19:41;10.93;;;6.18;;
72132;SDS011;60008;50.826;6.896;2023-06-10T05:22:34;11.50;;;6.00;;
72132;SDS011;60008;50.826;6.896;2023-06-10T05:25:19;12.15;;;6.18;;
72132;SDS011;60008;50.826;6.896;2023-06-10T05:28:10;11.35;;;6.03;;
72132;SDS011;60008;50.826;6.896;2023-06-10T05:30:59;11.77;;;6.15;;
72132;SDS011;60008;50.826;6.896;2023-06-10T05:33:51;10.32;;;6.03;;
72132;SDS011;60008;50.826;6.896;2023-06-10T05:36:35;11.23;;;5.77;;
72132;SDS011;60008;50.826;6.896;2023-06-10T05:39:27;9.02;;;6.05;;
72132;SDS011;60008;50.826;6.896;2023-06-10T05:42:12;9.73;;;6.40;;
72132;SDS011;60008;50.826;6.896;2023-06-10T05:45:05;10.20;;;5.88;;
72132;SDS011;60008;50.826;6.896;2023-06-10T05:47:58;12.02;;;6.50;;
72132;SDS011;60008;50.826;6.896;2023-06-10T05:50:49;13.03;;;5.90;;
72132;SDS011;60008;50.826;6.896;2023-06-10T05:53:34;8.20;;;5.68;;
72132;SDS011;60008;50.826;6.896;2023-06-10T05:56:26;9.48;;;6.22;;
72132;SDS011;60008;50.826;6.896;2023-06-10T05:59:11;8.98;;;5.93;;
72132;SDS011;60008;50.826;6.896;2023-06-10T06:02:02;8.43;;;5.75;;
72132;SDS011;60008;50.826;6.896;2023-06-10T06:04:47;8.60;;;5.70;;
72132;SDS011;60008;50.826;6.896;2023-06-10T06:07:39;9.18;;;6.10;;
72132;SDS011;60008;50.826;6.896;2023-06-10T06:10:30;12.02;;;6.40;;
72132;SDS011;60008;50.826;6.896;2023-06-10T06:13:22;8.90;;;6.05;;
72132;SDS011;60008;50.826;6.896;2023-06-10T06:16:07;9.65;;;6.10;;
72132;SDS011;60008;50.826;6.896;2023-06-10T06:18:59;8.30;;;5.97;;
72132;SDS011;60008;50.826;6.896;2023-06-10T06:21:51;9.95;;;5.72;;
72132;SDS011;60008;50.826;6.896;2023-06-10T06:24:36;9.73;;;5.75;;
72132;SDS011;60008;50.826;6.896;2023-06-10T06:27:28;8.45;;;5.63;;
72132;SDS011;60008;50.826;6.896;2023-06-10T06:30:13;7.40;;;4.97;;
72132;SDS011;60008;50.826;6.896;2023-06-10T06:33:05;8.67;;;4.70;;
72132;SDS011;60008;50.826;6.896;2023-06-10T06:35:50;8.40;;;5.28;;
72132;SDS011;60008;50.826;6.896;2023-06-10T06:38:41;10.18;;;5.50;;
72132;SDS011;60008;50.826;6.896;2023-06-10T06:41:26;6.70;;;4.78;;
72132;SDS011;60008;50.826;6.896;2023-06-10T06:44:18;11.60;;;5.07;;
72132;SDS011;60008;50.826;6.896;2023-06-10T06:47:03;7.17;;;4.70;;
72132;SDS011;60008;50.826;6.896;2023-06-10T06:49:55;7.50;;;5.00;;
72132;SDS011;60008;50.826;6.896;2023-06-10T06:52:40;7.50;;;4.82;;
72132;SDS011;60008;50.826;6.896;2023-06-10T06:55:32;7.35;;;5.05;;
72132;SDS011;60008;50.826;6.896;2023-06-10T06:58:17;9.73;;;4.90;;
72132;SDS011;60008;50.826;6.896;2023-06-10T07:01:08;8.33;;;4.60;;
72132;SDS011;60008;50.826;6.896;2023-06-10T07:04:00;7.18;;;4.80;;
72132;SDS011;60008;50.826;6.896;2023-06-10T07:06:51;7.68;;;5.00;;
72132;SDS011;60008;50.826;6.896;2023-06-10T07:09:43;7.90;;;4.97;;
72132;SDS011;60008;50.826;6.896;2023-06-10T07:12:34;8.18;;;4.90;;
72132;SDS011;60008;50.826;6.896;2023-06-10T07:15:26;11.80;;;7.57;;
72132;SDS011;60008;50.826;6.896;2023-06-10T07:18:17;8.68;;;4.75;;
72132;SDS011;60008;50.826;6.896;2023-06-10T07:21:09;8.35;;;5.75;;
72132;SDS011;60008;50.826;6.896;2023-06-10T07:23:54;7.38;;;4.88;;
72132;SDS011;60008;50.826;6.896;2023-06-10T07:26:45;8.75;;;4.97;;
72132;SDS011;60008;50.826;6.896;2023-06-10T07:29:37;11.40;;;4.90;;
72132;SDS011;60008;50.826;6.896;2023-06-10T07:32:22;8.60;;;4.63;;
72132;SDS011;60008;50.826;6.896;2023-06-10T07:35:14;7.32;;;4.75;;
72132;SDS011;60008;50.826;6.896;2023-06-10T07:38:05;9.57;;;5.00;;
72132;SDS011;60008;50.826;6.896;2023-06-10T07:40:50;8.77;;;5.00;;
72132;SDS011;60008;50.826;6.896;2023-06-10T07:43:41;8.47;;;5.53;;
72132;SDS011;60008;50.826;6.896;2023-06-10T07:46:26;7.63;;;5.30;;
72132;SDS011;60008;50.826;6.896;2023-06-10T07:49:18;8.18;;;5.28;;
72132;SDS011;60008;50.826;6.896;2023-06-10T07:52:09;7.28;;;5.10;;
72132;SDS011;60008;50.826;6.896;2023-06-10T07:54:54;10.57;;;5.63;;
72132;SDS011;60008;50.826;6.896;2023-06-10T07:57:45;8.13;;;5.10;;
72132;SDS011;60008;50.826;6.896;2023-06-10T08:00:36;9.40;;;5.25;;
72132;SDS011;60008;50.826;6.896;2023-06-10T08:03:21;7.78;;;5.95;;
72132;SDS011;60008;50.826;6.896;2023-06-10T08:06:12;14.40;;;5.72;;
72132;SDS011;60008;50.826;6.896;2023-06-10T08:09:04;10.23;;;6.10;;
72132;SDS011;60008;50.826;6.896;2023-06-10T08:11:56;9.93;;;5.60;;
72132;SDS011;60008;50.826;6.896;2023-06-10T08:14:41;9.93;;;5.95;;
72132;SDS011;60008;50.826;6.896;2023-06-10T08:17:33;6.80;;;5.50;;
72132;SDS011;60008;50.826;6.896;2023-06-10T08:20:18;11.32;;;6.25;;
72132;SDS011;60008;50.826;6.896;2023-06-10T08:23:10;9.93;;;6.03;;
72132;SDS011;60008;50.826;6.896;2023-06-10T08:25:55;7.53;;;5.97;;
72132;SDS011;60008;50.826;6.896;2023-06-10T08:28:46;8.20;;;5.80;;
72132;SDS011;60008;50.826;6.896;2023-06-10T08:31:31;10.23;;;6.97;;
72132;SDS011;60008;50.826;6.896;2023-06-10T08:34:22;9.23;;;5.85;;
72132;SDS011;60008;50.826;6.896;2023-06-10T08:37:14;13.10;;;6.85;;
72132;SDS011;60008;50.826;6.896;2023-06-10T08:39:59;10.73;;;6.63;;
72132;SDS011;60008;50.826;6.896;2023-06-10T08:42:54;8.10;;;6.60;;
72132;SDS011;60008;50.826;6.896;2023-06-10T08:45:41;10.98;;;6.63;;
72132;SDS011;60008;50.826;6.896;2023-06-10T08:48:34;11.05;;;6.53;;
72132;SDS011;60008;50.826;6.896;2023-06-10T08:51:31;7.65;;;6.28;;
72132;SDS011;60008;50.826;6.896;2023-06-10T08:54:26;9.73;;;7.00;;
72132;SDS011;60008;50.826;6.896;2023-06-10T08:57:21;7.88;;;6.45;;
72132;SDS011;60008;50.826;6.896;2023-06-10T09:00:07;9.60;;;6.72;;
72132;SDS011;60008;50.826;6.896;2023-06-10T09:02:59;10.90;;;6.15;;
72132;SDS011;60008;50.826;6.896;2023-06-10T09:05:53;8.68;;;6.30;;
72132;SDS011;60008;50.826;6.896;2023-06-10T09:08:54;8.17;;;6.20;;
72132;SDS011;60008;50.826;6.896;2023-06-10T09:11:40;12.63;;;6.77;;
72132;SDS011;60008;50.826;6.896;2023-06-10T09:14:33;10.65;;;6.68;;
72132;SDS011;60008;50.826;6.896;2023-06-10T09:17:18;11.02;;;5.70;;
72132;SDS011;60008;50.826;6.896;2023-06-10T09:20:10;8.23;;;5.90;;
72132;SDS011;60008;50.826;6.896;2023-06-10T09:22:56;9.30;;;6.90;;
72132;SDS011;60008;50.826;6.896;2023-06-10T09:25:55;9.07;;;6.70;;
72132;SDS011;60008;50.826;6.896;2023-06-10T09:28:52;7.47;;;6.68;;
72132;SDS011;60008;50.826;6.896;2023-06-10T09:31:47;7.22;;;5.70;;
72132;SDS011;60008;50.826;6.896;2023-06-10T09:34:39;9.63;;;5.93;;
72132;SDS011;60008;50.826;6.896;2023-06-10T09:37:25;7.30;;;6.15;;
72132;SDS011;60008;50.826;6.896;2023-06-10T09:40:16;9.23;;;6.47;;
72132;SDS011;60008;50.826;6.896;2023-06-10T09:43:01;11.00;;;6.18;;
72132;SDS011;60008;50.826;6.896;2023-06-10T09:45:55;10.60;;;6.28;;
72132;SDS011;60008;50.826;6.896;2023-06-10T09:48:42;7.78;;;5.90;;
72132;SDS011;60008;50.826;6.896;2023-06-10T09:51:34;8.95;;;6.50;;
72132;SDS011;60008;50.826;6.896;2023-06-10T09:54:19;9.57;;;6.80;;
72132;SDS011;60008;50.826;6.896;2023-06-10T09:57:12;9.55;;;7.05;;
72132;SDS011;60008;50.826;6.896;2023-06-10T09:59:59;10.80;;;6.85;;
72132;SDS011;60008;50.826;6.896;2023-06-10T10:02:51;7.85;;;6.35;;
72132;SDS011;60008;50.826;6.896;2023-06-10T10:05:38;10.85;;;7.10;;
72132;SDS011;60008;50.826;6.896;2023-06-10T10:08:29;8.67;;;6.13;;
72132;SDS011;60008;50.826;6.896;2023-06-10T10:11:21;10.90;;;7.03;;
72132;SDS011;60008;50.826;6.896;2023-06-10T10:14:13;10.05;;;6.93;;
72132;SDS011;60008;50.826;6.896;2023-06-10T10:17:01;8.07;;;6.05;;
72132;SDS011;60008;50.826;6.896;2023-06-10T10:19:58;10.73;;;6.70;;
72132;SDS011;60008;50.826;6.896;2023-06-10T10:22:47;10.40;;;6.53;;
72132;SDS011;60008;50.826;6.896;2023-06-10T10:25:41;7.45;;;6.13;;
72132;SDS011;60008;50.826;6.896;2023-06-10T10:28:48;9.32;;;7.00;;
72132;SDS011;60008;50.826;6.896;2023-06-10T10:31:39;9.52;;;6.18;;
72132;SDS011;60008;50.826;6.896;2023-06-10T10:34:35;9.35;;;6.53;;
72132;SDS011;60008;50.826;6.896;2023-06-10T10:37:28;10.90;;;6.90;;
72132;SDS011;60008;50.826;6.896;2023-06-10T10:40:21;9.70;;;6.78;;
72132;SDS011;60008;50.826;6.896;2023-06-10T10:43:07;11.55;;;5.78;;
72132;SDS011;60008;50.826;6.896;2023-06-10T10:46:00;8.48;;;6.82;;
72132;SDS011;60008;50.826;6.896;2023-06-10T10:48:47;9.05;;;6.93;;
72132;SDS011;60008;50.826;6.896;2023-06-10T10:54:45;9.85;;;6.30;;
72132;SDS011;60008;50.826;6.896;2023-06-10T10:57:41;7.18;;;6.13;;
72132;SDS011;60008;50.826;6.896;2023-06-10T11:00:33;11.80;;;6.70;;
72132;SDS011;60008;50.826;6.896;2023-06-10T11:03:29;13.63;;;7.53;;
72132;SDS011;60008;50.826;6.896;2023-06-10T11:06:27;8.50;;;6.20;;
72132;SDS011;60008;50.826;6.896;2023-06-10T11:09:27;8.98;;;6.40;;
72132;SDS011;60008;50.826;6.896;2023-06-10T11:12:22;8.30;;;7.35;;
72132;SDS011;60008;50.826;6.896;2023-06-10T11:15:08;8.85;;;6.22;;
72132;SDS011;60008;50.826;6.896;2023-06-10T11:18:07;8.45;;;6.22;;
72132;SDS011;60008;50.826;6.896;2023-06-10T11:21:01;13.30;;;6.13;;
72132;SDS011;60008;50.826;6.896;2023-06-10T11:23:53;8.48;;;5.80;;
72132;SDS011;60008;50.826;6.896;2023-06-10T11:26:43;8.13;;;6.10;;
72132;SDS011;60008;50.826;6.896;2023-06-10T11:29:35;8.30;;;5.78;;
72132;SDS011;60008;50.826;6.896;2023-06-10T11:32:20;9.98;;;5.85;;
72132;SDS011;60008;50.826;6.896;2023-06-10T11:35:12;8.60;;;5.73;;
72132;SDS011;60008;50.826;6.896;2023-06-10T11:37:58;12.40;;;6.03;;
72132;SDS011;60008;50.826;6.896;2023-06-10T11:40:49;7.45;;;5.82;;
72132;SDS011;60008;50.826;6.896;2023-06-10T11:43:35;11.88;;;7.00;;
72132;SDS011;60008;50.826;6.896;2023-06-10T11:46:27;7.28;;;5.53;;
72132;SDS011;60008;50.826;6.896;2023-06-10T11:49:13;6.47;;;5.30;;
72132;SDS011;60008;50.826;6.896;2023-06-10T11:52:04;11.27;;;5.90;;
72132;SDS011;60008;50.826;6.896;2023-06-10T11:54:56;7.95;;;5.80;;
72132;SDS011;60008;50.826;6.896;2023-06-10T11:57:41;8.90;;;5.75;;
72132;SDS011;60008;50.826;6.896;2023-06-10T12:00:32;8.65;;;5.22;;
72132;SDS011;60008;50.826;6.896;2023-06-10T12:03:17;7.40;;;5.87;;
72132;SDS011;60008;50.826;6.896;2023-06-10T12:06:15;7.85;;;5.72;;
72132;SDS011;60008;50.826;6.896;2023-06-10T12:09:18;8.77;;;5.40;;
72132;SDS011;60008;50.826;6.896;2023-06-10T12:12:12;8.10;;;5.85;;
72132;SDS011;60008;50.826;6.896;2023-06-10T12:14:58;7.15;;;5.55;;
72132;SDS011;60008;50.826;6.896;2023-06-10T12:17:49;9.00;;;5.57;;
72132;SDS011;60008;50.826;6.896;2023-06-10T12:20:35;6.93;;;5.18;;
72132;SDS011;60008;50.826;6.896;2023-06-10T12:23:27;7.25;;;5.82;;
72132;SDS011;60008;50.826;6.896;2023-06-10T12:26:13;6.22;;;4.95;;
72132;SDS011;60008;50.826;6.896;2023-06-10T12:29:12;7.43;;;4.90;;
72132;SDS011;60008;50.826;6.896;2023-06-10T12:32:05;7.83;;;5.10;;
72132;SDS011;60008;50.826;6.896;2023-06-10T12:35:04;8.02;;;5.13;;
72132;SDS011;60008;50.826;6.896;2023-06-10T12:38:01;8.82;;;5.18;;
72132;SDS011;60008;50.826;6.896;2023-06-10T12:41:02;8.25;;;5.22;;
72132;SDS011;60008;50.826;6.896;2023-06-10T12:43:49;8.40;;;5.10;;
72132;SDS011;60008;50.826;6.896;2023-06-10T12:46:43;7.57;;;4.87;;
72132;SDS011;60008;50.826;6.896;2023-06-10T12:49:28;6.90;;;4.88;;
72132;SDS011;60008;50.826;6.896;2023-06-10T12:52:20;8.23;;;5.10;;
72132;SDS011;60008;50.826;6.896;2023-06-10T12:55:05;5.97;;;4.07;;
72132;SDS011;60008;50.826;6.896;2023-06-10T12:57:58;7.63;;;4.65;;
72132;SDS011;60008;50.826;6.896;2023-06-10T13:00:45;6.87;;;4.50;;
72132;SDS011;60008;50.826;6.896;2023-06-10T13:03:37;8.43;;;4.55;;
72132;SDS011;60008;50.826;6.896;2023-06-10T13:06:23;8.68;;;4.38;;
72132;SDS011;60008;50.826;6.896;2023-06-10T13:09:15;5.97;;;4.82;;
72132;SDS011;60008;50.826;6.896;2023-06-10T13:12:00;9.40;;;5.00;;
72132;SDS011;60008;50.826;6.896;2023-06-10T13:14:59;8.80;;;5.00;;
72132;SDS011;60008;50.826;6.896;2023-06-10T13:17:52;7.55;;;5.10;;
72132;SDS011;60008;50.826;6.896;2023-06-10T13:20:43;8.23;;;4.25;;
72132;SDS011;60008;50.826;6.896;2023-06-10T13:23:35;8.18;;;4.40;;
72132;SDS011;60008;50.826;6.896;2023-06-10T13:26:26;8.00;;;5.07;;
72132;SDS011;60008;50.826;6.896;2023-06-10T13:29:11;7.60;;;4.83;;
72132;SDS011;60008;50.826;6.896;2023-06-10T13:32:05;6.45;;;4.15;;
72132;SDS011;60008;50.826;6.896;2023-06-10T13:34:57;9.90;;;4.95;;
72132;SDS011;60008;50.826;6.896;2023-06-10T13:37:49;8.05;;;4.90;;
72132;SDS011;60008;50.826;6.896;2023-06-10T13:40:41;6.13;;;3.92;;
72132;SDS011;60008;50.826;6.896;2023-06-10T13:43:27;5.37;;;4.43;;
72132;SDS011;60008;50.826;6.896;2023-06-10T13:46:19;6.75;;;4.45;;
72132;SDS011;60008;50.826;6.896;2023-06-10T13:49:06;6.63;;;4.38;;
72132;SDS011;60008;50.826;6.896;2023-06-10T13:51:57;7.55;;;4.43;;
72132;SDS011;60008;50.826;6.896;2023-06-10T13:54:42;6.25;;;4.20;;
72132;SDS011;60008;50.826;6.896;2023-06-10T13:57:33;9.30;;;4.00;;
72132;SDS011;60008;50.826;6.896;2023-06-10T14:00:18;6.05;;;4.13;;
72132;SDS011;60008;50.826;6.896;2023-06-10T14:03:10;5.60;;;4.03;;
72132;SDS011;60008;50.826;6.896;2023-06-10T14:06:03;7.20;;;4.10;;
72132;SDS011;60008;50.826;6.896;2023-06-10T14:09:02;8.10;;;4.60;;
72132;SDS011;60008;50.826;6.896;2023-06-10T14:11:47;7.57;;;4.33;;
72132;SDS011;60008;50.826;6.896;2023-06-10T14:14:38;7.13;;;4.50;;
72132;SDS011;60008;50.826;6.896;2023-06-10T14:17:29;6.75;;;4.30;;
72132;SDS011;60008;50.826;6.896;2023-06-10T14:20:22;9.95;;;4.25;;
72132;SDS011;60008;50.826;6.896;2023-06-10T14:23:07;7.07;;;4.03;;
72132;SDS011;60008;50.826;6.896;2023-06-10T14:25:59;5.27;;;3.73;;
72132;SDS011;60008;50.826;6.896;2023-06-10T14:28:50;6.45;;;4.00;;
72132;SDS011;60008;50.826;6.896;2023-06-10T14:31:35;6.80;;;3.83;;
72132;SDS011;60008;50.826;6.896;2023-06-10T14:34:26;10.75;;;4.35;;
72132;SDS011;60008;50.826;6.896;2023-06-10T14:37:13;7.47;;;4.63;;
72132;SDS011;60008;50.826;6.896;2023-06-10T14:40:06;7.10;;;4.27;;
72132;SDS011;60008;50.826;6.896;2023-06-10T14:42:51;7.53;;;4.05;;
72132;SDS011;60008;50.826;6.896;2023-06-10T14:45:42;7.32;;;4.97;;
72132;SDS011;60008;50.826;6.896;2023-06-10T14:48:27;5.47;;;4.07;;
72132;SDS011;60008;50.826;6.896;2023-06-10T14:51:18;6.05;;;4.55;;
72132;SDS011;60008;50.826;6.896;2023-06-10T14:54:04;8.27;;;4.43;;
72132;SDS011;60008;50.826;6.896;2023-06-10T14:56:56;7.68;;;4.50;;
72132;SDS011;60008;50.826;6.896;2023-06-10T14:59:41;8.25;;;4.32;;
72132;SDS011;60008;50.826;6.896;2023-06-10T15:02:32;7.80;;;4.93;;
72132;SDS011;60008;50.826;6.896;2023-06-10T15:05:17;8.70;;;4.88;;
72132;SDS011;60008;50.826;6.896;2023-06-10T15:08:12;8.60;;;4.40;;
72132;SDS011;60008;50.826;6.896;2023-06-10T15:11:03;13.15;;;4.30;;
72132;SDS011;60008;50.826;6.896;2023-06-10T15:13:54;7.10;;;4.50;;
72132;SDS011;60008;50.826;6.896;2023-06-10T15:16:45;6.18;;;4.40;;
72132;SDS011;60008;50.826;6.896;2023-06-10T15:19:36;6.68;;;4.30;;
72132;SDS011;60008;50.826;6.896;2023-06-10T15:22:21;6.27;;;4.50;;
72132;SDS011;60008;50.826;6.896;2023-06-10T15:25:12;7.38;;;4.50;;
72132;SDS011;60008;50.826;6.896;2023-06-10T15:28:15;7.20;;;4.60;;
72132;SDS011;60008;50.826;6.896;2023-06-10T15:31:00;8.02;;;4.50;;
72132;SDS011;60008;50.826;6.896;2023-06-10T15:33:52;8.50;;;4.60;;
72132;SDS011;60008;50.826;6.896;2023-06-10T15:36:37;8.70;;;5.17;;
72132;SDS011;60008;50.826;6.896;2023-06-10T15:39:29;6.80;;;4.80;;
72132;SDS011;60008;50.826;6.896;2023-06-10T15:42:15;5.72;;;4.10;;
72132;SDS011;60008;50.826;6.896;2023-06-10T15:45:07;6.13;;;4.28;;
72132;SDS011;60008;50.826;6.896;2023-06-10T15:47:53;5.93;;;3.80;;
72132;SDS011;60008;50.826;6.896;2023-06-10T15:50:44;6.73;;;4.10;;
72132;SDS011;60008;50.826;6.896;2023-06-10T15:53:29;5.80;;;3.63;;
72132;SDS011;60008;50.826;6.896;2023-06-10T15:56:21;5.18;;;3.75;;
72132;SDS011;60008;50.826;6.896;2023-06-10T15:59:07;15.57;;;4.13;;
72132;SDS011;60008;50.826;6.896;2023-06-10T16:01:59;7.75;;;3.92;;
72132;SDS011;60008;50.826;6.896;2023-06-10T16:04:44;5.60;;;4.30;;
72132;SDS011;60008;50.826;6.896;2023-06-10T16:07:43;5.57;;;4.10;;
72132;SDS011;60008;50.826;6.896;2023-06-10T16:10:34;6.32;;;4.07;;
72132;SDS011;60008;50.826;6.896;2023-06-10T16:13:25;6.07;;;4.18;;
72132;SDS011;60008;50.826;6.896;2023-06-10T16:16:17;6.88;;;4.60;;
72132;SDS011;60008;50.826;6.896;2023-06-10T16:19:02;9.73;;;4.73;;
72132;SDS011;60008;50.826;6.896;2023-06-10T16:21:53;7.45;;;4.10;;
72132;SDS011;60008;50.826;6.896;2023-06-10T16:24:38;10.35;;;4.20;;
72132;SDS011;60008;50.826;6.896;2023-06-10T16:27:29;7.70;;;4.80;;
72132;SDS011;60008;50.826;6.896;2023-06-10T16:30:20;7.97;;;4.45;;
72132;SDS011;60008;50.826;6.896;2023-06-10T16:33:05;9.40;;;4.27;;
72132;SDS011;60008;50.826;6.896;2023-06-10T16:35:56;6.63;;;4.05;;
72132;SDS011;60008;50.826;6.896;2023-06-10T16:38:47;8.77;;;4.30;;
72132;SDS011;60008;50.826;6.896;2023-06-10T16:41:32;7.45;;;4.60;;
72132;SDS011;60008;50.826;6.896;2023-06-10T16:44:24;5.35;;;3.80;;
72132;SDS011;60008;50.826;6.896;2023-06-10T16:47:09;5.13;;;3.40;;
72132;SDS011;60008;50.826;6.896;2023-06-10T16:50:00;5.72;;;3.88;;
72132;SDS011;60008;50.826;6.896;2023-06-10T16:52:45;4.88;;;3.60;;
72132;SDS011;60008;50.826;6.896;2023-06-10T16:55:36;6.95;;;4.25;;
72132;SDS011;60008;50.826;6.896;2023-06-10T16:58:23;6.70;;;3.90;;
72132;SDS011;60008;50.826;6.896;2023-06-10T17:01:14;8.37;;;4.00;;
72132;SDS011;60008;50.826;6.896;2023-06-10T17:04:00;5.55;;;3.72;;
72132;SDS011;60008;50.826;6.896;2023-06-10T17:06:58;8.23;;;4.22;;